sensor_id;sensor_type;location;lat;lon;timestamp;pressure;altitude;pressure_sealevel;temperature;humidity
59487;BME280;45298;54.918;73.504;2023-04-25T00:00:08;101041.59;;;0.54;54.12
59487;BME280;45298;54.918;73.504;2023-04-25T00:02:39;101060.63;;;0.70;54.22
59487;BME280;45298;54.918;73.504;2023-04-25T00:05:08;101060.63;;;0.73;54.94
59487;BME280;45298;54.918;73.504;2023-04-25T00:07:37;101032.84;;;0.63;54.39
59487;BME280;45298;54.918;73.504;2023-04-25T00:10:07;101053.63;;;0.78;54.37
59487;BME280;45298;54.918;73.504;2023-04-25T00:12:36;101039.72;;;0.76;54.10
59487;BME280;45298;54.918;73.504;2023-04-25T00:15:06;100967.66;;;0.44;54.00
59487;BME280;45298;54.918;73.504;2023-04-25T00:17:35;101041.38;;;0.93;53.97
59487;BME280;45298;54.918;73.504;2023-04-25T00:20:04;101049.19;;;0.96;53.40
59487;BME280;45298;54.918;73.504;2023-04-25T00:22:33;100889.63;;;-0.04;53.86
59487;BME280;45298;54.918;73.504;2023-04-25T00:25:04;101037.00;;;0.96;53.58
59487;BME280;45298;54.918;73.504;2023-04-25T00:27:33;101047.41;;;1.02;53.74
59487;BME280;45298;54.918;73.504;2023-04-25T00:30:02;101047.41;;;1.04;53.42
59487;BME280;45298;54.918;73.504;2023-04-25T00:32:31;101064.69;;;1.22;53.23
59487;BME280;45298;54.918;73.504;2023-04-25T00:35:00;101047.28;;;1.18;53.13
59487;BME280;45298;54.918;73.504;2023-04-25T00:37:28;101065.50;;;1.29;53.27
59487;BME280;45298;54.918;73.504;2023-04-25T00:40:00;101067.28;;;1.28;52.97
59487;BME280;45298;54.918;73.504;2023-04-25T00:42:30;101074.16;;;1.40;53.16
59487;BME280;45298;54.918;73.504;2023-04-25T00:45:00;101053.22;;;1.39;52.68
59487;BME280;45298;54.918;73.504;2023-04-25T00:47:29;101045.41;;;1.37;52.85
59487;BME280;45298;54.918;73.504;2023-04-25T00:49:58;101039.28;;;1.44;52.61
59487;BME280;45298;54.918;73.504;2023-04-25T00:52:27;101060.06;;;1.57;51.34
59487;BME280;45298;54.918;73.504;2023-04-25T00:54:56;101070.41;;;1.69;51.51
59487;BME280;45298;54.918;73.504;2023-04-25T00:57:25;101050.50;;;1.56;51.01
59487;BME280;45298;54.918;73.504;2023-04-25T00:59:54;101052.22;;;1.60;50.64
59487;BME280;45298;54.918;73.504;2023-04-25T01:02:23;101075.59;;;1.78;51.14
59487;BME280;45298;54.918;73.504;2023-04-25T01:04:52;101079.06;;;1.80;50.33
59487;BME280;45298;54.918;73.504;2023-04-25T01:07:21;101059.88;;;1.78;50.12
59487;BME280;45298;54.918;73.504;2023-04-25T01:09:51;101065.03;;;1.88;50.33
59487;BME280;45298;54.918;73.504;2023-04-25T01:12:20;101079.75;;;2.01;50.02
59487;BME280;45298;54.918;73.504;2023-04-25T01:14:49;101054.44;;;2.00;49.88
59487;BME280;45298;54.918;73.504;2023-04-25T01:17:19;101057.00;;;2.05;49.23
59487;BME280;45298;54.918;73.504;2023-04-25T01:19:49;101082.91;;;2.33;48.89
59487;BME280;45298;54.918;73.504;2023-04-25T01:22:19;101086.25;;;2.44;49.20
59487;BME280;45298;54.918;73.504;2023-04-25T01:24:50;101087.00;;;2.54;49.27
59487;BME280;45298;54.918;73.504;2023-04-25T01:27:19;101001.97;;;2.14;48.95
59487;BME280;45298;54.918;73.504;2023-04-25T01:29:50;101010.53;;;2.25;48.82
59487;BME280;45298;54.918;73.504;2023-04-25T01:32:18;101097.16;;;2.82;48.62
59487;BME280;45298;54.918;73.504;2023-04-25T01:34:50;101060.53;;;2.76;48.32
59487;BME280;45298;54.918;73.504;2023-04-25T01:37:19;101075.22;;;2.91;48.33
59487;BME280;45298;54.918;73.504;2023-04-25T01:39:48;101073.34;;;2.97;48.23
59487;BME280;45298;54.918;73.504;2023-04-25T01:42:18;101067.22;;;2.98;47.33
59487;BME280;45298;54.918;73.504;2023-04-25T01:44:47;101091.47;;;3.13;47.11
59487;BME280;45298;54.918;73.504;2023-04-25T01:47:16;101070.59;;;3.08;47.76
59487;BME280;45298;54.918;73.504;2023-04-25T01:49:45;101053.19;;;3.02;47.50
59487;BME280;45298;54.918;73.504;2023-04-25T01:52:14;101087.66;;;3.36;48.15
59487;BME280;45298;54.918;73.504;2023-04-25T01:54:42;101079.59;;;3.48;46.93
59487;BME280;45298;54.918;73.504;2023-04-25T01:57:14;101087.19;;;3.63;46.77
59487;BME280;45298;54.918;73.504;2023-04-25T01:59:44;101073.16;;;3.68;46.52
59487;BME280;45298;54.918;73.504;2023-04-25T02:02:36;101065.97;;;3.79;46.11
59487;BME280;45298;54.918;73.504;2023-04-25T02:05:09;101078.59;;;4.07;45.69
59487;BME280;45298;54.918;73.504;2023-04-25T02:07:40;101099.00;;;4.39;45.31
59487;BME280;45298;54.918;73.504;2023-04-25T02:10:09;101085.53;;;4.55;45.03
59487;BME280;45298;54.918;73.504;2023-04-25T02:12:50;101061.16;;;4.48;44.92
59487;BME280;45298;54.918;73.504;2023-04-25T02:15:51;101055.75;;;4.58;44.62
59487;BME280;45298;54.918;73.504;2023-04-25T02:18:20;101064.19;;;4.72;45.25
59487;BME280;45298;54.918;73.504;2023-04-25T02:20:49;101074.47;;;4.81;44.91
59487;BME280;45298;54.918;73.504;2023-04-25T02:23:20;101019.56;;;4.69;44.79
59487;BME280;45298;54.918;73.504;2023-04-25T02:25:49;101087.56;;;5.24;44.63
59487;BME280;45298;54.918;73.504;2023-04-25T02:28:18;101082.97;;;5.34;44.46
59487;BME280;45298;54.918;73.504;2023-04-25T02:30:47;101059.41;;;5.29;44.18
59487;BME280;45298;54.918;73.504;2023-04-25T02:33:16;101082.50;;;5.54;44.02
59487;BME280;45298;54.918;73.504;2023-04-25T02:35:45;101012.19;;;5.23;43.82
59487;BME280;45298;54.918;73.504;2023-04-25T02:38:13;101063.00;;;5.63;43.40
59487;BME280;45298;54.918;73.504;2023-04-25T02:40:43;101065.34;;;5.73;43.79
59487;BME280;45298;54.918;73.504;2023-04-25T02:43:11;101046.72;;;5.81;43.91
59487;BME280;45298;54.918;73.504;2023-04-25T02:45:40;101042.72;;;5.99;43.02
59487;BME280;45298;54.918;73.504;2023-04-25T02:48:09;101045.91;;;6.14;42.21
59487;BME280;45298;54.918;73.504;2023-04-25T02:50:38;101058.38;;;6.39;41.34
59487;BME280;45298;54.918;73.504;2023-04-25T02:53:07;101019.13;;;6.29;40.59
59487;BME280;45298;54.918;73.504;2023-04-25T02:55:44;101057.56;;;6.67;40.89
59487;BME280;45298;54.918;73.504;2023-04-25T02:58:13;101027.72;;;6.66;40.42
59487;BME280;45298;54.918;73.504;2023-04-25T03:00:47;101051.28;;;7.01;40.53
59487;BME280;45298;54.918;73.504;2023-04-25T03:03:17;101019.72;;;6.98;40.02
59487;BME280;45298;54.918;73.504;2023-04-25T03:05:46;101037.41;;;7.22;39.60
59487;BME280;45298;54.918;73.504;2023-04-25T03:08:18;101026.69;;;7.27;39.16
59487;BME280;45298;54.918;73.504;2023-04-25T03:10:47;101023.50;;;7.44;39.38
59487;BME280;45298;54.918;73.504;2023-04-25T03:13:16;101042.09;;;7.68;38.70
59487;BME280;45298;54.918;73.504;2023-04-25T03:15:46;101041.75;;;7.77;39.44
59487;BME280;45298;54.918;73.504;2023-04-25T03:18:15;101031.91;;;7.82;39.10
59487;BME280;45298;54.918;73.504;2023-04-25T03:20:44;101037.34;;;8.03;38.75
59487;BME280;45298;54.918;73.504;2023-04-25T03:23:13;100973.25;;;7.72;38.99
59487;BME280;45298;54.918;73.504;2023-04-25T03:25:42;100982.63;;;7.81;38.55
59487;BME280;45298;54.918;73.504;2023-04-25T03:28:14;101025.94;;;8.02;37.47
59487;BME280;45298;54.918;73.504;2023-04-25T03:30:43;101041.50;;;8.10;38.78
59487;BME280;45298;54.918;73.504;2023-04-25T03:33:12;101021.59;;;8.00;38.06
59487;BME280;45298;54.918;73.504;2023-04-25T03:35:41;100977.25;;;7.84;37.92
59487;BME280;45298;54.918;73.504;2023-04-25T03:38:11;101051.25;;;8.34;38.04
59487;BME280;45298;54.918;73.504;2023-04-25T03:40:43;101040.66;;;8.34;38.25
59487;BME280;45298;54.918;73.504;2023-04-25T03:43:17;101054.25;;;8.48;38.05
59487;BME280;45298;54.918;73.504;2023-04-25T03:45:52;101063.75;;;8.54;37.96
59487;BME280;45298;54.918;73.504;2023-04-25T03:48:22;101047.22;;;8.49;37.49
59487;BME280;45298;54.918;73.504;2023-04-25T03:50:54;101043.72;;;8.46;37.59
59487;BME280;45298;54.918;73.504;2023-04-25T03:53:24;101031.28;;;8.50;37.55
59487;BME280;45298;54.918;73.504;2023-04-25T03:56:12;101019.44;;;8.60;36.79
59487;BME280;45298;54.918;73.504;2023-04-25T03:58:41;101012.13;;;8.67;37.17
59487;BME280;45298;54.918;73.504;2023-04-25T04:01:11;101014.88;;;8.88;36.69
59487;BME280;45298;54.918;73.504;2023-04-25T04:03:40;101032.22;;;9.17;36.23
59487;BME280;45298;54.918;73.504;2023-04-25T04:06:10;101005.56;;;9.22;36.41
59487;BME280;45298;54.918;73.504;2023-04-25T04:08:42;101000.34;;;9.20;36.22
59487;BME280;45298;54.918;73.504;2023-04-25T04:11:11;101031.00;;;9.26;36.12
59487;BME280;45298;54.918;73.504;2023-04-25T04:13:40;101007.13;;;9.05;36.38
59487;BME280;45298;54.918;73.504;2023-04-25T04:16:09;101022.59;;;9.15;35.97
59487;BME280;45298;54.918;73.504;2023-04-25T04:18:41;101025.09;;;9.19;36.57
59487;BME280;45298;54.918;73.504;2023-04-25T04:21:09;101020.41;;;9.26;36.62
59487;BME280;45298;54.918;73.504;2023-04-25T04:23:40;101009.81;;;9.26;36.18
59487;BME280;45298;54.918;73.504;2023-04-25T04:26:10;101016.06;;;9.46;35.94
59487;BME280;45298;54.918;73.504;2023-04-25T04:28:46;100960.50;;;9.23;35.83
59487;BME280;45298;54.918;73.504;2023-04-25T04:31:35;101004.03;;;9.80;36.01
59487;BME280;45298;54.918;73.504;2023-04-25T04:34:04;101011.63;;;10.08;35.22
59487;BME280;45298;54.918;73.504;2023-04-25T04:36:35;100996.59;;;10.09;34.88
59487;BME280;45298;54.918;73.504;2023-04-25T04:39:05;100993.78;;;10.12;34.74
59487;BME280;45298;54.918;73.504;2023-04-25T04:41:54;101000.38;;;10.43;34.64
59487;BME280;45298;54.918;73.504;2023-04-25T04:44:46;100973.63;;;10.86;33.44
59487;BME280;45298;54.918;73.504;2023-04-25T04:47:34;100982.03;;;11.31;32.39
59487;BME280;45298;54.918;73.504;2023-04-25T04:50:32;100969.53;;;11.68;32.38
59487;BME280;45298;54.918;73.504;2023-04-25T04:53:27;100953.78;;;11.99;31.70
59487;BME280;45298;54.918;73.504;2023-04-25T04:56:19;100968.16;;;12.28;31.83
59487;BME280;45298;54.918;73.504;2023-04-25T04:59:14;100962.28;;;12.55;30.78
59487;BME280;45298;54.918;73.504;2023-04-25T05:02:21;100931.63;;;12.64;31.44
59487;BME280;45298;54.918;73.504;2023-04-25T05:05:22;100942.09;;;12.83;31.79
59487;BME280;45298;54.918;73.504;2023-04-25T05:08:11;100961.09;;;13.23;31.73
59487;BME280;45298;54.918;73.504;2023-04-25T05:10:54;100964.22;;;13.46;30.80
59487;BME280;45298;54.918;73.504;2023-04-25T05:14:01;100931.53;;;13.58;31.37
59487;BME280;45298;54.918;73.504;2023-04-25T05:17:04;100871.97;;;13.29;30.44
59487;BME280;45298;54.918;73.504;2023-04-25T05:19:54;100966.22;;;14.02;31.00
59487;BME280;45298;54.918;73.504;2023-04-25T05:22:42;100958.78;;;13.93;30.20
59487;BME280;45298;54.918;73.504;2023-04-25T05:25:34;100969.03;;;13.70;31.41
59487;BME280;45298;54.918;73.504;2023-04-25T05:28:11;100909.16;;;13.30;30.98
59487;BME280;45298;54.918;73.504;2023-04-25T05:31:10;100957.78;;;13.65;31.29
59487;BME280;45298;54.918;73.504;2023-04-25T05:33:53;100950.59;;;13.96;31.38
59487;BME280;45298;54.918;73.504;2023-04-25T05:36:23;100945.63;;;14.18;31.10
59487;BME280;45298;54.918;73.504;2023-04-25T05:38:52;100935.31;;;14.41;31.44
59487;BME280;45298;54.918;73.504;2023-04-25T05:41:21;100951.22;;;14.85;31.85
59487;BME280;45298;54.918;73.504;2023-04-25T05:44:13;100933.66;;;14.95;31.01
59487;BME280;45298;54.918;73.504;2023-04-25T05:46:49;100920.63;;;14.90;30.16
59487;BME280;45298;54.918;73.504;2023-04-25T05:49:38;100880.31;;;14.66;30.86
59487;BME280;45298;54.918;73.504;2023-04-25T05:52:27;100940.09;;;15.05;30.91
59487;BME280;45298;54.918;73.504;2023-04-25T05:55:07;100946.53;;;15.16;31.09
59487;BME280;45298;54.918;73.504;2023-04-25T05:57:36;100926.13;;;15.15;30.71
59487;BME280;45298;54.918;73.504;2023-04-25T06:00:07;100927.38;;;15.49;31.43
59487;BME280;45298;54.918;73.504;2023-04-25T06:02:40;100920.97;;;15.78;31.43
59487;BME280;45298;54.918;73.504;2023-04-25T06:05:14;100908.03;;;15.97;31.11
59487;BME280;45298;54.918;73.504;2023-04-25T06:07:45;100925.66;;;16.13;31.32
59487;BME280;45298;54.918;73.504;2023-04-25T06:10:14;100919.13;;;16.54;30.83
59487;BME280;45298;54.918;73.504;2023-04-25T06:12:43;100879.91;;;16.53;30.81
59487;BME280;45298;54.918;73.504;2023-04-25T06:15:14;100915.53;;;16.67;30.52
59487;BME280;45298;54.918;73.504;2023-04-25T06:17:55;100908.97;;;16.71;30.42
59487;BME280;45298;54.918;73.504;2023-04-25T06:20:24;100917.41;;;17.02;30.27
59487;BME280;45298;54.918;73.504;2023-04-25T06:22:56;100895.19;;;16.88;29.98
59487;BME280;45298;54.918;73.504;2023-04-25T06:25:45;100902.13;;;16.67;31.50
59487;BME280;45298;54.918;73.504;2023-04-25T06:28:14;100896.03;;;16.65;30.92
59487;BME280;45298;54.918;73.504;2023-04-25T06:30:44;100898.13;;;16.72;31.20
59487;BME280;45298;54.918;73.504;2023-04-25T06:33:17;100881.03;;;16.86;31.43
59487;BME280;45298;54.918;73.504;2023-04-25T06:35:46;100895.19;;;16.88;31.10
59487;BME280;45298;54.918;73.504;2023-04-25T06:38:21;100887.94;;;17.02;31.83
59487;BME280;45298;54.918;73.504;2023-04-25T06:40:51;100892.91;;;17.31;31.63
59487;BME280;45298;54.918;73.504;2023-04-25T06:43:21;100859.88;;;17.30;31.48
59487;BME280;45298;54.918;73.504;2023-04-25T06:46:10;100889.66;;;17.73;30.84
59487;BME280;45298;54.918;73.504;2023-04-25T06:48:43;100828.56;;;17.42;31.47
59487;BME280;45298;54.918;73.504;2023-04-25T06:51:12;100867.59;;;17.80;31.38
59487;BME280;45298;54.918;73.504;2023-04-25T06:53:42;100863.22;;;18.02;31.12
59487;BME280;45298;54.918;73.504;2023-04-25T06:56:21;100812.47;;;17.88;31.02
59487;BME280;45298;54.918;73.504;2023-04-25T06:59:08;100842.19;;;18.19;31.30
59487;BME280;45298;54.918;73.504;2023-04-25T07:01:40;100842.41;;;18.38;30.79
59487;BME280;45298;54.918;73.504;2023-04-25T07:04:14;100861.69;;;18.43;30.82
59487;BME280;45298;54.918;73.504;2023-04-25T07:06:48;100857.50;;;18.51;31.45
59487;BME280;45298;54.918;73.504;2023-04-25T07:09:22;100837.09;;;18.60;30.72
59487;BME280;45298;54.918;73.504;2023-04-25T07:11:51;100840.13;;;18.66;30.56
59487;BME280;45298;54.918;73.504;2023-04-25T07:14:20;100837.44;;;18.66;31.21
59487;BME280;45298;54.918;73.504;2023-04-25T07:16:49;100832.00;;;18.78;30.42
59487;BME280;45298;54.918;73.504;2023-04-25T07:19:19;100780.06;;;18.56;30.25
59487;BME280;45298;54.918;73.504;2023-04-25T07:21:48;100841.16;;;19.08;31.26
59487;BME280;45298;54.918;73.504;2023-04-25T07:24:21;100834.22;;;18.72;31.63
59487;BME280;45298;54.918;73.504;2023-04-25T07:26:51;100823.56;;;18.50;32.16
59487;BME280;45298;54.918;73.504;2023-04-25T07:29:46;100812.34;;;18.45;31.87
59487;BME280;45298;54.918;73.504;2023-04-25T07:32:14;100835.22;;;18.71;32.22
59487;BME280;45298;54.918;73.504;2023-04-25T07:34:43;100810.88;;;18.73;31.86
59487;BME280;45298;54.918;73.504;2023-04-25T07:37:13;100825.22;;;18.83;32.37
59487;BME280;45298;54.918;73.504;2023-04-25T07:39:57;100804.13;;;18.25;32.50
59487;BME280;45298;54.918;73.504;2023-04-25T07:42:26;100799.00;;;18.22;32.90
59487;BME280;45298;54.918;73.504;2023-04-25T07:44:54;100813.56;;;18.52;32.53
59487;BME280;45298;54.918;73.504;2023-04-25T07:47:23;100799.09;;;18.64;32.85
59487;BME280;45298;54.918;73.504;2023-04-25T07:49:53;100797.78;;;18.80;32.34
59487;BME280;45298;54.918;73.504;2023-04-25T07:52:22;100792.28;;;18.81;32.29
59487;BME280;45298;54.918;73.504;2023-04-25T07:54:59;100793.13;;;18.82;32.28
59487;BME280;45298;54.918;73.504;2023-04-25T07:57:40;100812.97;;;19.02;32.00
59487;BME280;45298;54.918;73.504;2023-04-25T08:00:10;100800.50;;;19.01;32.17
59487;BME280;45298;54.918;73.504;2023-04-25T08:02:48;100794.00;;;19.03;32.04
59487;BME280;45298;54.918;73.504;2023-04-25T08:05:17;100794.91;;;19.14;31.93
59487;BME280;45298;54.918;73.504;2023-04-25T08:07:57;100786.06;;;19.23;32.25
59487;BME280;45298;54.918;73.504;2023-04-25T08:10:27;100806.47;;;19.05;32.23
59487;BME280;45298;54.918;73.504;2023-04-25T08:12:56;100790.34;;;19.05;32.32
59487;BME280;45298;54.918;73.504;2023-04-25T08:15:25;100814.91;;;19.21;32.12
59487;BME280;45298;54.918;73.504;2023-04-25T08:17:54;100763.88;;;18.88;31.78
59487;BME280;45298;54.918;73.504;2023-04-25T08:20:23;100805.66;;;19.14;31.67
59487;BME280;45298;54.918;73.504;2023-04-25T08:22:54;100805.50;;;19.06;32.42
59487;BME280;45298;54.918;73.504;2023-04-25T08:25:32;100792.94;;;19.16;31.96
59487;BME280;45298;54.918;73.504;2023-04-25T08:28:01;100776.09;;;19.14;31.82
59487;BME280;45298;54.918;73.504;2023-04-25T08:30:31;100774.00;;;19.17;32.27
59487;BME280;45298;54.918;73.504;2023-04-25T08:33:00;100744.28;;;19.19;31.88
59487;BME280;45298;54.918;73.504;2023-04-25T08:35:50;100776.59;;;19.60;31.57
59487;BME280;45298;54.918;73.504;2023-04-25T08:38:19;100737.84;;;19.31;31.27
59487;BME280;45298;54.918;73.504;2023-04-25T08:40:51;100756.69;;;19.41;31.43
59487;BME280;45298;54.918;73.504;2023-04-25T08:43:21;100776.81;;;19.16;31.92
59487;BME280;45298;54.918;73.504;2023-04-25T08:45:52;100759.53;;;19.09;32.13
59487;BME280;45298;54.918;73.504;2023-04-25T08:48:34;100763.31;;;18.85;32.10
59487;BME280;45298;54.918;73.504;2023-04-25T08:51:06;100784.56;;;18.88;32.63
59487;BME280;45298;54.918;73.504;2023-04-25T08:53:40;100780.56;;;19.03;32.25
59487;BME280;45298;54.918;73.504;2023-04-25T08:56:16;100789.88;;;19.21;31.79
59487;BME280;45298;54.918;73.504;2023-04-25T08:58:50;100784.00;;;18.94;31.88
59487;BME280;45298;54.918;73.504;2023-04-25T09:01:20;100768.28;;;18.90;31.95
59487;BME280;45298;54.918;73.504;2023-04-25T09:03:53;100759.47;;;18.99;31.44
59487;BME280;45298;54.918;73.504;2023-04-25T09:06:24;100776.19;;;19.02;31.32
59487;BME280;45298;54.918;73.504;2023-04-25T09:08:54;100776.59;;;18.86;31.69
59487;BME280;45298;54.918;73.504;2023-04-25T09:11:23;100713.38;;;18.61;31.65
59487;BME280;45298;54.918;73.504;2023-04-25T09:14:16;100781.25;;;18.84;31.77
59487;BME280;45298;54.918;73.504;2023-04-25T09:17:15;100773.94;;;19.08;31.89
59487;BME280;45298;54.918;73.504;2023-04-25T09:19:51;100777.06;;;19.13;31.38
59487;BME280;45298;54.918;73.504;2023-04-25T09:22:26;100770.72;;;19.14;31.35
59487;BME280;45298;54.918;73.504;2023-04-25T09:24:55;100757.75;;;19.29;31.36
59487;BME280;45298;54.918;73.504;2023-04-25T09:27:28;100710.56;;;19.15;31.02
59487;BME280;45298;54.918;73.504;2023-04-25T09:30:29;100780.22;;;19.49;30.90
59487;BME280;45298;54.918;73.504;2023-04-25T09:33:09;100745.78;;;19.43;30.89
59487;BME280;45298;54.918;73.504;2023-04-25T09:35:44;100760.19;;;19.83;30.28
59487;BME280;45298;54.918;73.504;2023-04-25T09:38:22;100748.81;;;19.90;30.68
59487;BME280;45298;54.918;73.504;2023-04-25T09:41:01;100756.88;;;19.90;30.15
59487;BME280;45298;54.918;73.504;2023-04-25T09:43:38;100734.63;;;19.98;30.38
59487;BME280;45298;54.918;73.504;2023-04-25T09:46:09;100746.81;;;20.32;30.08
59487;BME280;45298;54.918;73.504;2023-04-25T09:48:50;100749.38;;;20.43;29.37
59487;BME280;45298;54.918;73.504;2023-04-25T09:51:29;100748.69;;;20.41;29.31
59487;BME280;45298;54.918;73.504;2023-04-25T09:53:59;100758.31;;;20.34;29.47
59487;BME280;45298;54.918;73.504;2023-04-25T09:56:46;100771.47;;;20.07;29.54
59487;BME280;45298;54.918;73.504;2023-04-25T09:59:21;100762.94;;;19.92;29.64
59487;BME280;45298;54.918;73.504;2023-04-25T10:01:55;100752.88;;;19.44;30.14
59487;BME280;45298;54.918;73.504;2023-04-25T10:04:34;100710.56;;;19.15;30.49
59487;BME280;45298;54.918;73.504;2023-04-25T10:07:08;100758.03;;;19.57;30.44
59487;BME280;45298;54.918;73.504;2023-04-25T10:09:39;100743.16;;;19.62;30.28
59487;BME280;45298;54.918;73.504;2023-04-25T10:12:08;100744.00;;;19.63;30.07
59487;BME280;45298;54.918;73.504;2023-04-25T10:14:41;100760.63;;;19.78;30.03
59487;BME280;45298;54.918;73.504;2023-04-25T10:17:11;100740.22;;;19.66;29.72
59487;BME280;45298;54.918;73.504;2023-04-25T10:19:40;100700.41;;;19.18;30.04
59487;BME280;45298;54.918;73.504;2023-04-25T10:22:42;100754.00;;;19.41;30.51
59487;BME280;45298;54.918;73.504;2023-04-25T10:25:13;100728.94;;;19.41;30.45
59487;BME280;45298;54.918;73.504;2023-04-25T10:27:42;100743.81;;;19.45;30.05
59487;BME280;45298;54.918;73.504;2023-04-25T10:30:15;100740.53;;;19.31;30.20
59487;BME280;45298;54.918;73.504;2023-04-25T10:32:45;100729.63;;;19.33;30.28
59487;BME280;45298;54.918;73.504;2023-04-25T10:35:18;100734.13;;;19.32;30.19
59487;BME280;45298;54.918;73.504;2023-04-25T10:40:34;100702.78;;;19.12;30.17
59487;BME280;45298;54.918;73.504;2023-04-25T10:43:41;100754.16;;;19.50;30.32
59487;BME280;45298;54.918;73.504;2023-04-25T10:46:28;100735.47;;;19.48;30.30
59487;BME280;45298;54.918;73.504;2023-04-25T10:49:02;100738.19;;;19.48;30.46
59487;BME280;45298;54.918;73.504;2023-04-25T10:51:32;100736.63;;;19.55;30.31
59487;BME280;45298;54.918;73.504;2023-04-25T10:54:22;100676.63;;;19.24;30.61
59487;BME280;45298;54.918;73.504;2023-04-25T10:56:54;100724.59;;;19.59;30.53
59487;BME280;45298;54.918;73.504;2023-04-25T10:59:24;100725.91;;;19.75;30.16
59487;BME280;45298;54.918;73.504;2023-04-25T11:01:56;100679.09;;;19.37;29.98
59487;BME280;45298;54.918;73.504;2023-04-25T11:04:29;100740.22;;;19.66;29.91
59487;BME280;45298;54.918;73.504;2023-04-25T11:07:26;100735.66;;;19.66;29.99
59487;BME280;45298;54.918;73.504;2023-04-25T11:10:01;100719.34;;;19.48;30.12
59487;BME280;45298;54.918;73.504;2023-04-25T11:12:32;100729.09;;;19.39;30.15
59487;BME280;45298;54.918;73.504;2023-04-25T11:15:05;100715.88;;;19.26;30.22
59487;BME280;45298;54.918;73.504;2023-04-25T11:17:35;100710.59;;;19.25;30.72
59487;BME280;45298;54.918;73.504;2023-04-25T11:20:04;100708.94;;;19.33;30.51
59487;BME280;45298;54.918;73.504;2023-04-25T11:22:40;100721.59;;;19.43;30.38
59487;BME280;45298;54.918;73.504;2023-04-25T11:25:10;100729.38;;;19.46;30.31
59487;BME280;45298;54.918;73.504;2023-04-25T11:27:53;100731.63;;;19.41;30.22
59487;BME280;45298;54.918;73.504;2023-04-25T11:30:25;100722.69;;;19.30;30.33
59487;BME280;45298;54.918;73.504;2023-04-25T11:32:58;100700.94;;;19.12;30.35
59487;BME280;45298;54.918;73.504;2023-04-25T11:35:29;100707.84;;;19.05;30.46
59487;BME280;45298;54.918;73.504;2023-04-25T11:37:58;100717.22;;;19.11;30.34
59487;BME280;45298;54.918;73.504;2023-04-25T11:40:27;100699.19;;;19.01;30.49
59487;BME280;45298;54.918;73.504;2023-04-25T11:42:56;100697.75;;;18.97;30.12
59487;BME280;45298;54.918;73.504;2023-04-25T11:45:28;100632.50;;;18.64;30.34
59487;BME280;45298;54.918;73.504;2023-04-25T11:47:59;100709.84;;;19.13;30.26
59487;BME280;45298;54.918;73.504;2023-04-25T11:50:31;100708.44;;;19.09;30.41
59487;BME280;45298;54.918;73.504;2023-04-25T11:52:59;100709.41;;;19.08;29.92
59487;BME280;45298;54.918;73.504;2023-04-25T11:55:32;100718.47;;;19.07;29.60
59487;BME280;45298;54.918;73.504;2023-04-25T11:58:01;100698.97;;;18.93;30.25
59487;BME280;45298;54.918;73.504;2023-04-25T12:00:31;100587.34;;;18.27;30.26
59487;BME280;45298;54.918;73.504;2023-04-25T12:03:00;100669.59;;;18.70;30.27
59487;BME280;45298;54.918;73.504;2023-04-25T12:05:32;100698.97;;;18.93;30.17
59487;BME280;45298;54.918;73.504;2023-04-25T12:10:42;100699.22;;;18.80;30.34
59487;BME280;45298;54.918;73.504;2023-04-25T12:13:25;100704.69;;;18.79;29.98
59487;BME280;45298;54.918;73.504;2023-04-25T12:15:56;100698.28;;;18.70;30.08
59487;BME280;45298;54.918;73.504;2023-04-25T12:18:25;100705.38;;;18.71;30.17
59487;BME280;45298;54.918;73.504;2023-04-25T12:21:01;100710.06;;;18.79;29.91
59487;BME280;45298;54.918;73.504;2023-04-25T12:23:32;100691.22;;;18.69;30.19
59487;BME280;45298;54.918;73.504;2023-04-25T12:26:02;100700.84;;;18.71;29.83
59487;BME280;45298;54.918;73.504;2023-04-25T12:28:32;100707.38;;;18.79;29.60
59487;BME280;45298;54.918;73.504;2023-04-25T12:31:07;100696.72;;;18.67;29.63
59487;BME280;45298;54.918;73.504;2023-04-25T12:33:37;100711.72;;;18.70;29.36
59487;BME280;45298;54.918;73.504;2023-04-25T12:36:08;100711.59;;;18.71;29.95
59487;BME280;45298;54.918;73.504;2023-04-25T12:38:39;100721.63;;;18.69;29.87
59487;BME280;45298;54.918;73.504;2023-04-25T12:41:09;100697.06;;;18.53;29.89
59487;BME280;45298;54.918;73.504;2023-04-25T12:43:38;100698.63;;;18.55;29.59
59487;BME280;45298;54.918;73.504;2023-04-25T12:46:08;100650.94;;;18.26;29.93
59487;BME280;45298;54.918;73.504;2023-04-25T12:48:37;100709.94;;;18.59;29.50
59487;BME280;45298;54.918;73.504;2023-04-25T12:51:06;100692.94;;;18.49;29.88
59487;BME280;45298;54.918;73.504;2023-04-25T12:53:35;100692.31;;;18.45;29.56
59487;BME280;45298;54.918;73.504;2023-04-25T12:56:08;100677.13;;;18.34;29.89
59487;BME280;45298;54.918;73.504;2023-04-25T12:58:38;100682.97;;;18.39;29.84
59487;BME280;45298;54.918;73.504;2023-04-25T13:01:07;100695.28;;;18.42;29.88
59487;BME280;45298;54.918;73.504;2023-04-25T13:03:36;100674.25;;;18.26;29.62
59487;BME280;45298;54.918;73.504;2023-04-25T13:06:07;100689.25;;;18.28;29.50
59487;BME280;45298;54.918;73.504;2023-04-25T13:08:39;100687.22;;;18.21;29.51
59487;BME280;45298;54.918;73.504;2023-04-25T13:11:10;100691.47;;;18.23;29.65
59487;BME280;45298;54.918;73.504;2023-04-25T13:13:40;100639.84;;;17.87;30.18
59487;BME280;45298;54.918;73.504;2023-04-25T13:16:12;100687.84;;;18.13;29.98
59487;BME280;45298;54.918;73.504;2023-04-25T13:18:44;100683.28;;;18.04;30.11
59487;BME280;45298;54.918;73.504;2023-04-25T13:21:13;100675.59;;;17.99;30.23